CheckWX is a tool to help pilots better visualize weather data.  It is not intended as a substitute for an official pre-flight weather briefing.

16:50:02 UTC

ENGM METAR
Oslo Gardermoen Airport
Oslo, Norway
Current

30 mins ago

ENGM 251620Z 19008KT CAVOK 03/M02 Q1005 NOSIG
Observed
Jan-25 @ 16:20 UTC
Wind
  • 190° at 8 KTS
Visibility
10,000+ meters
Flight Rules
VFR
Cloud Levels
  • Clear skies
Temperature
C / 37°F
Dewpoint
-2°C / 28°F
Humidity
70%
Altimeter
29.68" Hg
Pressure
1004.92 hPa
Previous

60 mins ago

ENGM 251550Z 22010KT CAVOK 03/M02 Q1005 NOSIG
Observed
Jan-25 @ 15:50 UTC
Wind
  • 220° at 10 KTS
Visibility
10,000+ meters
Flight Rules
VFR
Cloud Levels
  • Clear skies
Temperature
C / 37°F
Dewpoint
-2°C / 28°F
Humidity
70%
Altimeter
29.68" Hg
Pressure
1004.92 hPa
Previous

2 hours ago

ENGM 251450Z 20007KT CAVOK 03/M03 Q1006 NOSIG
Observed
Jan-25 @ 14:50 UTC
Wind
  • 200° at 7 KTS
Visibility
10,000+ meters
Flight Rules
VFR
Cloud Levels
  • Clear skies
Temperature
C / 37°F
Dewpoint
-3°C / 27°F
Humidity
65%
Altimeter
29.7" Hg
Pressure
1005.92 hPa